createdAt,value
2023-05-23T00:01:08.554Z,100737.69
2023-05-23T00:03:56.555Z,100733.63
2023-05-23T00:06:47.077Z,100738.44
2023-05-23T00:09:34.141Z,100726.13
2023-05-23T00:12:21.239Z,100729.56
2023-05-23T00:15:10.033Z,100726.13
2023-05-23T00:17:58.168Z,100720.38
2023-05-23T00:20:45.687Z,100720.53
2023-05-23T00:23:33.989Z,100721.09
2023-05-23T00:26:21.900Z,100699.56
2023-05-23T00:29:15.743Z,100708.53
2023-05-23T00:32:02.702Z,100704.22
2023-05-23T00:34:50.946Z,100702.66
2023-05-23T00:37:38.649Z,100700.94
2023-05-23T00:40:25.076Z,100707.44
2023-05-23T00:43:12.486Z,100709.56
2023-05-23T00:45:59.936Z,100702.97
2023-05-23T00:48:46.856Z,100722.84
2023-05-23T00:51:35.217Z,100713.97
2023-05-23T00:54:26.028Z,100713.34
2023-05-23T00:57:14.358Z,100713.72
2023-05-23T01:00:01.638Z,100708.72
2023-05-23T01:02:51.447Z,100713.28
2023-05-23T01:05:38.204Z,100706.53
2023-05-23T01:08:26.347Z,100707.53
2023-05-23T01:11:19.099Z,100704.25
2023-05-23T01:14:10.558Z,100678.97
2023-05-23T01:17:03.854Z,100698.69
2023-05-23T01:20:01.222Z,100691.78
2023-05-23T01:23:11.840Z,100685.72
2023-05-23T01:26:26.321Z,100686.81
2023-05-23T01:29:21.453Z,100689.09
2023-05-23T01:32:13.258Z,100684.84
2023-05-23T01:35:02.067Z,100669.94
2023-05-23T01:37:48.610Z,100670.13
2023-05-23T01:40:35.369Z,100674.28
2023-05-23T01:43:22.598Z,100677.25
2023-05-23T01:46:14.237Z,100673.38
2023-05-23T01:49:02.049Z,100672.38
2023-05-23T01:51:49.004Z,100662.56
2023-05-23T01:54:35.788Z,100652.56
2023-05-23T01:57:24.242Z,100649.25
2023-05-23T02:00:12.388Z,100654.50
2023-05-23T02:03:04.221Z,100656.47
2023-05-23T02:05:52.812Z,100656.63
2023-05-23T02:08:39.551Z,100656.34
2023-05-23T02:11:26.969Z,100659.78
2023-05-23T02:14:13.926Z,100664.97
2023-05-23T02:17:00.760Z,100661.09
2023-05-23T02:19:49.070Z,100655.53
2023-05-23T02:22:35.577Z,100660.72
2023-05-23T02:25:22.362Z,100654.59
2023-05-23T02:28:09.168Z,100655.22
2023-05-23T02:30:56.242Z,100649.03
2023-05-23T02:33:43.453Z,100647.84
2023-05-23T02:36:33.500Z,100637.34
2023-05-23T02:39:20.727Z,100641.72
2023-05-23T02:42:07.915Z,100646.13
2023-05-23T02:44:54.368Z,100640.78
2023-05-23T02:47:41.169Z,100640.31
2023-05-23T02:50:29.002Z,100638.44
2023-05-23T02:53:17.376Z,100642.44
2023-05-23T02:56:04.413Z,100645.78
2023-05-23T02:58:51.159Z,100639.03
2023-05-23T03:01:37.964Z,100641.22
2023-05-23T03:04:24.646Z,100641.84
2023-05-23T03:07:27.059Z,100649.69
2023-05-23T03:10:17.144Z,100641.97
2023-05-23T03:13:04.694Z,100641.75
2023-05-23T03:15:51.779Z,100630.03
2023-05-23T03:18:38.618Z,100643.03
2023-05-23T03:21:25.941Z,100627.38
2023-05-23T03:24:12.889Z,100637.59
2023-05-23T03:27:01.669Z,100633.38
2023-05-23T03:29:49.292Z,100637.84
2023-05-23T03:32:36.631Z,100622.28
2023-05-23T03:35:23.968Z,100626.66
2023-05-23T03:38:10.803Z,100626.75
2023-05-23T03:40:57.536Z,100621.41
2023-05-23T03:43:46.145Z,100626.34
2023-05-23T03:46:33.435Z,100628.84
2023-05-23T03:49:20.748Z,100621.44
2023-05-23T03:52:07.959Z,100616.53
2023-05-23T03:54:55.710Z,100620.31
2023-05-23T03:57:43.164Z,100554.91
2023-05-23T04:00:31.584Z,100630.53
2023-05-23T04:03:21.569Z,100622.16
2023-05-23T04:06:12.227Z,100624.84
2023-05-23T04:09:02.659Z,100621.16
2023-05-23T04:11:51.585Z,100628.66
2023-05-23T04:14:39.649Z,100621.34
2023-05-23T04:17:29.735Z,100614.97
2023-05-23T04:20:16.861Z,100616.94
2023-05-23T04:23:03.655Z,100610.41
2023-05-23T04:25:52.976Z,100601.00
2023-05-23T04:28:46.418Z,100607.13
2023-05-23T04:31:34.109Z,100598.16
2023-05-23T04:34:23.306Z,100606.34
2023-05-23T04:37:10.459Z,100574.06
2023-05-23T04:39:59.433Z,100586.47
2023-05-23T04:43:16.533Z,100596.44
2023-05-23T04:46:14.088Z,100598.94
2023-05-23T04:49:04.234Z,100597.56
2023-05-23T04:51:52.708Z,100602.66
2023-05-23T04:54:45.038Z,100607.66
2023-05-23T04:57:32.432Z,100606.63
2023-05-23T05:00:21.753Z,100601.09
2023-05-23T05:03:10.086Z,100598.50
2023-05-23T05:06:02.035Z,100594.72
2023-05-23T05:08:49.954Z,100604.38
2023-05-23T05:11:36.871Z,100595.94
2023-05-23T05:14:23.459Z,100595.06
2023-05-23T05:17:10.338Z,100589.47
2023-05-23T05:20:19.370Z,100579.97
2023-05-23T05:23:05.852Z,100594.88
2023-05-23T05:25:54.136Z,100588.34
2023-05-23T05:28:41.903Z,100600.22
2023-05-23T05:31:29.754Z,100601.00
2023-05-23T05:34:16.346Z,100597.63
2023-05-23T05:37:04.141Z,100602.97
2023-05-23T05:39:50.886Z,100595.91
2023-05-23T05:42:39.023Z,100598.81
2023-05-23T05:45:25.890Z,100600.97
2023-05-23T05:48:13.719Z,100605.22
2023-05-23T05:51:01.272Z,100602.47
2023-05-23T05:53:51.349Z,100609.44
2023-05-23T05:56:38.245Z,100603.75
2023-05-23T05:59:26.312Z,100609.09
2023-05-23T06:02:14.747Z,100602.50
2023-05-23T06:05:01.516Z,100604.59
2023-05-23T06:07:51.374Z,100600.03
2023-05-23T06:10:39.824Z,100596.59
2023-05-23T06:13:26.824Z,100597.28
2023-05-23T06:16:16.241Z,100586.78
2023-05-23T06:19:04.937Z,100591.38
2023-05-23T06:21:51.890Z,100598.16
2023-05-23T06:24:40.035Z,100600.06
2023-05-23T06:27:26.981Z,100596.72
2023-05-23T06:30:14.905Z,100592.97
2023-05-23T06:33:02.831Z,100589.75
2023-05-23T06:35:49.268Z,100590.41
2023-05-23T06:38:36.240Z,100582.63
2023-05-23T06:41:22.956Z,100584.28
2023-05-23T06:44:11.659Z,100583.88
2023-05-23T06:47:00.826Z,100602.00
2023-05-23T06:49:48.973Z,100599.88
2023-05-23T06:52:35.793Z,100591.34
2023-05-23T06:55:22.970Z,100594.22
2023-05-23T06:58:09.859Z,100596.56
2023-05-23T07:00:58.333Z,100592.75
2023-05-23T07:03:48.300Z,100590.63
2023-05-23T07:06:36.904Z,100589.31
2023-05-23T07:09:25.686Z,100577.69
2023-05-23T07:12:21.790Z,100585.44
2023-05-23T07:15:09.784Z,100575.88
2023-05-23T07:18:03.358Z,100578.56
2023-05-23T07:20:51.226Z,100575.22
2023-05-23T07:23:42.206Z,100554.00
2023-05-23T07:26:29.138Z,100578.56
2023-05-23T07:29:16.586Z,100581.66
2023-05-23T07:32:06.312Z,100581.56
2023-05-23T07:34:53.130Z,100587.16
2023-05-23T07:37:40.070Z,100591.97
2023-05-23T07:40:28.186Z,100582.94
2023-05-23T07:43:14.646Z,100585.22
2023-05-23T07:46:01.577Z,100585.22
2023-05-23T07:48:48.262Z,100583.06
2023-05-23T07:51:35.102Z,100579.63
2023-05-23T07:54:22.119Z,100578.78
2023-05-23T07:57:16.678Z,100569.97
2023-05-23T08:00:05.144Z,100579.06
2023-05-23T08:03:01.655Z,100580.97
2023-05-23T08:05:56.158Z,100583.22
2023-05-23T08:08:43.959Z,100583.06
2023-05-23T08:11:30.909Z,100593.94
2023-05-23T08:14:19.119Z,100594.22
2023-05-23T08:17:24.852Z,100599.22
2023-05-23T08:20:13.471Z,100596.59
2023-05-23T08:23:00.380Z,100590.06
2023-05-23T08:25:47.052Z,100594.69
2023-05-23T08:28:35.318Z,100596.13
2023-05-23T08:31:27.683Z,100603.03
2023-05-23T08:34:15.163Z,100606.56
2023-05-23T08:37:02.750Z,100604.63
2023-05-23T08:39:49.515Z,100601.94
2023-05-23T08:42:59.328Z,100610.63
2023-05-23T08:45:47.074Z,100602.88
2023-05-23T08:48:39.188Z,100595.69
2023-05-23T08:51:27.842Z,100600.06
2023-05-23T08:54:18.153Z,100593.78
2023-05-23T08:57:05.201Z,100605.25
2023-05-23T08:59:59.231Z,100606.50
2023-05-23T09:02:46.354Z,100608.56
2023-05-23T09:05:59.154Z,100604.31
2023-05-23T09:08:46.912Z,100616.69
2023-05-23T09:11:36.320Z,100611.28
2023-05-23T09:14:26.952Z,100615.38
2023-05-23T09:17:19.272Z,100614.59
2023-05-23T09:20:13.314Z,100621.31
2023-05-23T09:23:07.258Z,100590.38
2023-05-23T09:25:54.151Z,100613.19
2023-05-23T09:28:44.000Z,100614.28
2023-05-23T09:31:33.606Z,100613.53
2023-05-23T09:34:21.891Z,100610.34
2023-05-23T09:37:09.783Z,100617.88
2023-05-23T09:39:58.374Z,100614.19
2023-05-23T09:42:46.420Z,100610.00
2023-05-23T09:45:34.331Z,100610.03
2023-05-23T09:48:29.150Z,100605.88
2023-05-23T09:51:16.340Z,100596.22
2023-05-23T09:54:02.752Z,100603.81
2023-05-23T09:56:54.082Z,100607.56
2023-05-23T09:59:43.321Z,100606.41
2023-05-23T10:02:55.905Z,100606.97
2023-05-23T10:05:46.259Z,100601.28
2023-05-23T10:08:38.236Z,100602.41
2023-05-23T10:12:16.775Z,100604.84
2023-05-23T10:15:04.918Z,100605.84
2023-05-23T10:18:03.155Z,100603.28
2023-05-23T10:20:50.981Z,100602.44
2023-05-23T10:23:39.197Z,100607.25
2023-05-23T10:26:26.456Z,100610.38
2023-05-23T10:29:14.294Z,100607.13
2023-05-23T10:32:02.812Z,100604.84
2023-05-23T10:35:00.254Z,100613.97
2023-05-23T10:37:53.767Z,100602.13
2023-05-23T10:40:52.003Z,100594.72
2023-05-23T10:43:48.476Z,100604.94
2023-05-23T10:47:01.375Z,100597.00
2023-05-23T10:49:52.806Z,100590.59
2023-05-23T10:52:41.596Z,100602.41
2023-05-23T10:55:33.614Z,100606.66
2023-05-23T10:58:23.253Z,100599.19
2023-05-23T11:01:11.046Z,100581.66
2023-05-23T11:03:59.403Z,100583.38
2023-05-23T11:06:46.414Z,100597.25
2023-05-23T11:09:33.139Z,100596.44
2023-05-23T11:12:38.619Z,100586.53
2023-05-23T11:15:25.383Z,100594.97
2023-05-23T11:18:20.725Z,100601.16
2023-05-23T11:21:10.559Z,100601.88
2023-05-23T11:23:57.211Z,100592.81
2023-05-23T11:26:54.593Z,100594.72
2023-05-23T11:29:41.520Z,100596.59
2023-05-23T11:32:30.952Z,100587.47
2023-05-23T11:35:18.193Z,100590.47
2023-05-23T11:38:06.814Z,100597.72
2023-05-23T11:40:53.438Z,100593.44
2023-05-23T11:43:51.525Z,100590.88
2023-05-23T11:46:38.278Z,100598.16
2023-05-23T11:49:24.977Z,100597.00
2023-05-23T11:52:11.827Z,100591.31
2023-05-23T11:55:03.959Z,100594.72
2023-05-23T11:57:51.898Z,100593.31
2023-05-23T12:00:44.873Z,100606.41
2023-05-23T12:03:32.007Z,100606.69
2023-05-23T12:06:20.098Z,100607.81
2023-05-23T12:09:06.891Z,100602.78
2023-05-23T12:11:55.191Z,100616.47
2023-05-23T12:14:44.937Z,100613.44
2023-05-23T12:17:31.698Z,100627.34
2023-05-23T12:20:18.488Z,100625.44
2023-05-23T12:23:06.173Z,100628.44
2023-05-23T12:25:53.894Z,100635.09
2023-05-23T12:28:43.342Z,100638.69
2023-05-23T12:31:30.062Z,100631.28
2023-05-23T12:34:17.061Z,100640.97
2023-05-23T12:39:53.586Z,100632.88
2023-05-23T12:42:53.784Z,100632.09
2023-05-23T12:45:42.142Z,100626.97
2023-05-23T12:48:30.045Z,100621.00
2023-05-23T12:51:17.178Z,100625.72
2023-05-23T12:54:04.652Z,100627.72
2023-05-23T12:56:52.318Z,100631.44
2023-05-23T12:59:38.851Z,100622.38
2023-05-23T13:02:28.071Z,100632.03
2023-05-23T13:05:14.872Z,100640.28
2023-05-23T13:08:01.752Z,100647.97
2023-05-23T13:10:48.369Z,100657.66
2023-05-23T13:13:35.567Z,100672.28
2023-05-23T13:16:22.308Z,100673.44
2023-05-23T13:19:11.097Z,100681.16
2023-05-23T13:21:57.957Z,100675.56
2023-05-23T13:24:44.952Z,100678.66
2023-05-23T13:27:31.596Z,100679.13
2023-05-23T13:30:18.531Z,100686.44
2023-05-23T13:33:05.531Z,100679.59
2023-05-23T13:35:54.382Z,100676.59
2023-05-23T13:38:42.395Z,100684.34
2023-05-23T13:41:31.995Z,100647.66
2023-05-23T13:44:18.725Z,100683.88
2023-05-23T13:47:13.402Z,100695.56
2023-05-23T13:50:00.292Z,100690.69
2023-05-23T13:52:49.656Z,100683.59
2023-05-23T13:55:36.654Z,100691.66
2023-05-23T13:58:23.366Z,100689.31
2023-05-23T14:01:10.623Z,100698.94
2023-05-23T14:03:57.256Z,100690.69
2023-05-23T14:06:44.042Z,100695.66
2023-05-23T14:09:32.350Z,100695.31
2023-05-23T14:12:18.731Z,100691.13
2023-05-23T14:15:06.076Z,100697.44
2023-05-23T14:17:55.486Z,100696.69
2023-05-23T14:20:42.442Z,100699.34
2023-05-23T14:23:29.308Z,100691.00
2023-05-23T14:26:17.568Z,100696.31
2023-05-23T14:29:04.731Z,100691.19
2023-05-23T14:31:51.573Z,100709.03
2023-05-23T14:34:38.400Z,100711.19
2023-05-23T14:37:25.445Z,100707.97
2023-05-23T14:40:13.490Z,100706.66
2023-05-23T14:43:01.295Z,100717.53
2023-05-23T14:45:48.295Z,100714.31
2023-05-23T14:48:35.117Z,100721.41
2023-05-23T14:51:42.039Z,100724.69
2023-05-23T14:54:28.515Z,100722.84
2023-05-23T14:57:15.324Z,100733.50
2023-05-23T15:00:06.118Z,100731.03
2023-05-23T15:02:53.297Z,100743.81
2023-05-23T15:05:39.984Z,100737.50
2023-05-23T15:08:27.310Z,100734.69
2023-05-23T15:11:14.072Z,100735.56
2023-05-23T15:14:01.095Z,100734.59
2023-05-23T15:16:50.584Z,100740.38
2023-05-23T15:19:46.202Z,100740.38
2023-05-23T15:22:39.520Z,100742.88
2023-05-23T15:25:47.069Z,100754.59
2023-05-23T15:28:35.594Z,100759.47
2023-05-23T15:31:23.596Z,100769.81
2023-05-23T15:34:15.181Z,100782.53
2023-05-23T15:37:02.304Z,100785.91
2023-05-23T15:39:49.503Z,100785.34
2023-05-23T15:42:36.415Z,100787.34
2023-05-23T15:45:23.483Z,100790.50
2023-05-23T15:48:10.511Z,100788.13
2023-05-23T15:50:58.559Z,100787.56
2023-05-23T15:53:59.734Z,100790.19
2023-05-23T15:56:48.171Z,100800.34
2023-05-23T15:59:36.291Z,100796.22
2023-05-23T16:02:23.384Z,100799.41
2023-05-23T16:05:10.278Z,100803.81
2023-05-23T16:07:58.271Z,100808.03
2023-05-23T16:10:45.138Z,100811.56
2023-05-23T16:13:32.054Z,100810.84
2023-05-23T16:16:18.941Z,100822.13
2023-05-23T16:19:06.049Z,100826.16
2023-05-23T16:21:53.162Z,100819.25
2023-05-23T16:24:41.360Z,100825.75
2023-05-23T16:27:28.184Z,100827.06
2023-05-23T16:30:15.716Z,100824.44
2023-05-23T16:33:02.697Z,100839.72
2023-05-23T16:35:49.785Z,100836.63
2023-05-23T16:38:37.252Z,100844.06
2023-05-23T16:41:25.626Z,100841.13
2023-05-23T16:44:12.195Z,100853.81
2023-05-23T16:46:58.891Z,100859.25
2023-05-23T16:49:46.221Z,100866.84
2023-05-23T16:52:33.114Z,100864.00
2023-05-23T16:55:19.894Z,100867.09
2023-05-23T16:58:08.184Z,100877.72
2023-05-23T17:00:55.027Z,100874.25
2023-05-23T17:03:42.298Z,100877.81
2023-05-23T17:06:29.089Z,100877.47
2023-05-23T17:09:17.975Z,100887.41
2023-05-23T17:12:05.206Z,100891.88
2023-05-23T17:14:53.109Z,100899.44
2023-05-23T17:17:39.947Z,100902.28
2023-05-23T17:20:27.170Z,100910.63
2023-05-23T17:23:13.786Z,100915.09
2023-05-23T17:26:00.517Z,100924.94
2023-05-23T17:28:47.517Z,100932.78
2023-05-23T17:31:35.690Z,100937.34
2023-05-23T17:34:22.401Z,100944.25
2023-05-23T17:37:09.451Z,100947.53
2023-05-23T17:39:57.688Z,100954.06
2023-05-23T17:42:44.997Z,100961.34
2023-05-23T17:45:31.924Z,100964.31
2023-05-23T17:48:25.814Z,100962.94
2023-05-23T17:51:18.258Z,100974.41
2023-05-23T17:54:05.179Z,100979.97
2023-05-23T17:56:51.750Z,100972.03
2023-05-23T17:59:38.433Z,100984.56
2023-05-23T18:02:25.382Z,100984.56
2023-05-23T18:05:15.334Z,100994.16
2023-05-23T18:08:05.100Z,100998.81
2023-05-23T18:10:54.796Z,100952.25
2023-05-23T18:13:41.654Z,101006.19
2023-05-23T18:16:29.100Z,101008.38
2023-05-23T18:19:16.255Z,101015.91
2023-05-23T18:22:04.106Z,101015.66
2023-05-23T18:24:50.849Z,101016.25
2023-05-23T18:27:37.637Z,101021.44
2023-05-23T18:30:24.836Z,100993.63
2023-05-23T18:33:11.719Z,101026.16
2023-05-23T18:35:58.632Z,101036.84
2023-05-23T18:38:46.765Z,101035.31
2023-05-23T18:41:33.625Z,101038.28
2023-05-23T18:44:20.958Z,101043.44
2023-05-23T18:47:08.129Z,101035.69
2023-05-23T18:49:54.920Z,101044.75
2023-05-23T18:52:42.408Z,101061.34
2023-05-23T18:55:30.580Z,101059.81
2023-05-23T18:58:17.144Z,101060.56
2023-05-23T19:01:04.244Z,101055.88
2023-05-23T19:03:51.044Z,101062.09
2023-05-23T19:06:37.630Z,101071.81
2023-05-23T19:09:24.514Z,101066.38
2023-05-23T19:12:12.676Z,101079.16
2023-05-23T19:14:59.799Z,101087.16
2023-05-23T19:17:46.638Z,101083.34
2023-05-23T19:20:33.716Z,101012.41
2023-05-23T19:23:20.781Z,101082.97
2023-05-23T19:26:07.824Z,101090.19
2023-05-23T19:28:55.765Z,101092.78
2023-05-23T19:31:42.592Z,101099.78
2023-05-23T19:34:29.285Z,101101.84
2023-05-23T19:37:16.200Z,101105.44
2023-05-23T19:40:03.094Z,101109.84
2023-05-23T19:42:50.039Z,101108.50
2023-05-23T19:45:38.244Z,101111.56
2023-05-23T19:48:25.089Z,101110.38
2023-05-23T19:51:12.057Z,101113.50
2023-05-23T19:53:59.004Z,101111.81
2023-05-23T19:56:46.331Z,101106.03
2023-05-23T19:59:33.681Z,101114.84
2023-05-23T20:02:25.215Z,101114.25
2023-05-23T20:05:11.879Z,101129.72
2023-05-23T20:07:58.429Z,101131.06
2023-05-23T20:10:45.480Z,101129.66
2023-05-23T20:13:34.095Z,101132.38
2023-05-23T20:16:20.865Z,101136.91
2023-05-23T20:19:09.787Z,101137.25
2023-05-23T20:21:56.751Z,101140.25
2023-05-23T20:24:43.374Z,101141.09
2023-05-23T20:27:30.243Z,101134.72
2023-05-23T20:30:17.236Z,101145.06
2023-05-23T20:33:04.371Z,101150.38
2023-05-23T20:35:54.083Z,101148.78
2023-05-23T20:38:41.707Z,101141.13
2023-05-23T20:41:29.679Z,101149.31
2023-05-23T20:44:17.306Z,101149.53
2023-05-23T20:47:04.025Z,101153.44
2023-05-23T20:49:51.187Z,101151.03
2023-05-23T20:52:41.455Z,101151.78
2023-05-23T20:55:29.294Z,101157.31
2023-05-23T20:58:16.459Z,101154.38
2023-05-23T21:01:03.042Z,101159.69
2023-05-23T21:03:49.773Z,101163.59
2023-05-23T21:06:36.904Z,101164.84
2023-05-23T21:09:25.112Z,101155.31
2023-05-23T21:12:12.040Z,101164.78
2023-05-23T21:14:58.889Z,101163.16
2023-05-23T21:17:45.924Z,101164.34
2023-05-23T21:20:32.708Z,101171.28
2023-05-23T21:23:19.551Z,101180.53
2023-05-23T21:26:07.951Z,101170.50
2023-05-23T21:28:54.800Z,101179.31
2023-05-23T21:31:42.198Z,101185.28
2023-05-23T21:34:28.864Z,101183.84
2023-05-23T21:37:16.108Z,101184.38
2023-05-23T21:40:03.261Z,101190.00
2023-05-23T21:42:52.962Z,101190.56
2023-05-23T21:45:42.098Z,101192.84
2023-05-23T21:48:31.313Z,101190.50
2023-05-23T21:51:19.992Z,101189.25
2023-05-23T21:54:08.869Z,101192.56
2023-05-23T21:56:57.671Z,101191.63
2023-05-23T21:59:50.787Z,101180.28
2023-05-23T22:02:40.086Z,101193.34
2023-05-23T22:05:28.891Z,101199.63
2023-05-23T22:08:16.605Z,101196.00
2023-05-23T22:11:04.730Z,101195.53
2023-05-23T22:13:53.795Z,101199.41
2023-05-23T22:16:46.316Z,101204.97
2023-05-23T22:19:35.485Z,101196.84
2023-05-23T22:22:24.967Z,101212.72
2023-05-23T22:25:13.320Z,101205.88
2023-05-23T22:28:02.354Z,101214.44
2023-05-23T22:30:52.758Z,101211.34
2023-05-23T22:33:44.032Z,101210.72
2023-05-23T22:36:35.957Z,101216.19
2023-05-23T22:39:25.856Z,101216.94
2023-05-23T22:42:14.368Z,101211.44
2023-05-23T22:45:02.811Z,101213.19
2023-05-23T22:47:54.505Z,101218.81
2023-05-23T22:50:49.041Z,101211.69
2023-05-23T22:53:40.132Z,101219.97
2023-05-23T22:56:28.338Z,101211.50
2023-05-23T22:59:17.705Z,101218.84
2023-05-23T23:02:08.410Z,101221.69
2023-05-23T23:04:56.047Z,101228.63
2023-05-23T23:07:44.163Z,101229.53
2023-05-23T23:10:30.964Z,101239.16
2023-05-23T23:13:18.126Z,101234.97
2023-05-23T23:16:04.716Z,101171.88
2023-05-23T23:18:52.251Z,101235.78
2023-05-23T23:21:39.198Z,101235.22
2023-05-23T23:24:27.284Z,101237.44
2023-05-23T23:27:14.030Z,101231.97
2023-05-23T23:30:01.085Z,101230.13
2023-05-23T23:32:47.695Z,101235.72
2023-05-23T23:35:34.487Z,101235.53
2023-05-23T23:38:21.340Z,101241.56
2023-05-23T23:41:09.690Z,101249.06
2023-05-23T23:43:57.566Z,101246.56
2023-05-23T23:46:44.629Z,101246.75
2023-05-23T23:49:31.369Z,101244.66
2023-05-23T23:52:18.281Z,101245.38
2023-05-23T23:55:05.419Z,101243.84
2023-05-23T23:57:53.622Z,101249.34
